Airfield :
LOGIN :

Register | Disclaimer

   EN    FR    IT 

 










Legend :    VFR   Marginal VFR   IFR   Intensive IFR   Very Intensive IFR
Visi :
Ceiling :
>= 8 km
>= 3000ft
5 to 8 km
1000 to 3000 ft
1500m to 5 km
500 to 1000 ft
800 to 1500m
200 to 500 ft
< 800m
< 200 ft
Symbols :   Thunderstorms  Fog  Heavy snow  Heavy precipitations  Wind > 20 kt
SIGMETs :     Misc.  Thunderstorms  Icing  Turbulence  Mountain Waves  Volcanic Ashes






- Airport Elevation : 56 ft
- IATA code : BZR


LFMU - Beziers / Vias

CURRENT METAR :
  • 132200Z AUTO 11011KT 9999 FEW017 BKN024 OVC034 20/17 Q1019

EXPIRED METARs :
  • 132130Z AUTO 12010KT 9999 BKN021 BKN030 OVC036 20/17 Q1019
  • 132100Z AUTO 12011KT 090V150 9999 BKN013 BKN021 OVC038 20/18 Q1019
  • 132030Z AUTO 11012KT 9999 BKN010 OVC019 20/18 Q1019 TEMPO RA
  • 132000Z AUTO 12011KT 9999 BKN010 OVC017 20/18 Q1019 TEMPO RA
  • 131930Z AUTO 11011KT 9999 BKN008 BKN013 BKN026 20/18 Q1019 TEMPO RA
  • 131900Z AUTO 11009KT 9999 OVC007 20/18 Q1019 TEMPO RA

TAF TAF LFMU
Valid from the 13 at 15:00 until the 14 at 15:00 UTC


131400Z 1315/1415 12015KT 9999 BKN020
TEMPO 1315/1415 VRB03KT OVC007
PROB30
TEMPO 1315/1415 RA
ATIS : +33 4 67 90 88 88



MET'MAP, your aeronautical weather chart ! - Copyright ORBIFLY December 2007 - Disclaimer

ORBIFLY MET'MAP TEAM :

Programming & Development : Alexandra Zaïnal
Concept & Development : Baudouin d'Aumeries
Co-Development & Prog : Marc-Olivier Méhu
Technical & hardware support : Manuel Goepfert

Contact : metmap@orbifly.com




SOURCES & CREDITS :

   NOAA